createdAt,value
2017-10-17T00:01:18.480Z,10.00
2017-10-17T00:03:46.379Z,10.00
2017-10-17T00:06:13.884Z,10.00
2017-10-17T00:08:41.403Z,10.00
2017-10-17T00:11:10.658Z,9.90
2017-10-17T00:13:38.567Z,9.70
2017-10-17T00:16:06.065Z,9.70
2017-10-17T00:18:33.542Z,9.60
2017-10-17T00:21:01.441Z,9.40
2017-10-17T00:23:28.927Z,9.40
2017-10-17T00:25:56.427Z,9.40
2017-10-17T00:28:24.306Z,9.40
2017-10-17T00:30:52.223Z,9.40
2017-10-17T00:33:20.504Z,9.40
2017-10-17T00:39:05.315Z,9.70
2017-10-17T00:41:32.816Z,9.60
2017-10-17T00:44:00.302Z,9.60
2017-10-17T00:46:28.825Z,9.60
2017-10-17T00:48:56.704Z,9.70
2017-10-17T00:51:25.654Z,9.70
2017-10-17T00:53:54.023Z,9.60
2017-10-17T00:56:21.507Z,9.50
2017-10-17T00:58:49.004Z,9.40
2017-10-17T01:01:16.508Z,9.40
2017-10-17T01:03:44.920Z,9.40
2017-10-17T01:06:14.787Z,9.30
2017-10-17T01:08:42.273Z,9.30
2017-10-17T01:11:09.776Z,9.20
2017-10-17T01:13:37.260Z,9.20
2017-10-17T01:16:04.755Z,9.10
2017-10-17T01:18:32.630Z,9.00
2017-10-17T01:21:11.343Z,8.90
2017-10-17T01:23:57.840Z,9.00
2017-10-17T01:26:25.341Z,9.00
2017-10-17T01:28:59.422Z,9.00
2017-10-17T01:31:27.311Z,8.90
2017-10-17T01:33:56.755Z,8.90
2017-10-17T01:36:24.235Z,9.00
2017-10-17T01:38:59.308Z,8.90
2017-10-17T01:41:26.855Z,8.90
2017-10-17T01:44:21.131Z,8.80
2017-10-17T01:46:49.002Z,8.80
2017-10-17T01:49:18.707Z,8.80
2017-10-17T01:51:48.439Z,8.70
2017-10-17T01:54:15.948Z,8.80
2017-10-17T01:56:43.471Z,8.70
2017-10-17T01:59:16.527Z,8.70
2017-10-17T02:01:44.399Z,8.60
2017-10-17T02:04:12.283Z,8.60
2017-10-17T02:06:39.785Z,8.60
2017-10-17T02:09:07.268Z,8.60
2017-10-17T02:11:35.144Z,8.50
2017-10-17T02:14:03.042Z,8.40
2017-10-17T02:16:32.709Z,8.40
2017-10-17T02:19:03.107Z,8.40
2017-10-17T02:21:31.555Z,8.40
2017-10-17T02:23:59.991Z,8.50
2017-10-17T02:26:29.051Z,8.50
2017-10-17T02:29:00.028Z,8.40
2017-10-17T02:31:27.537Z,8.40
2017-10-17T02:34:15.757Z,8.40
2017-10-17T02:36:44.278Z,8.30
2017-10-17T02:39:11.755Z,8.30
2017-10-17T02:41:39.261Z,8.30
2017-10-17T02:44:06.776Z,8.30
2017-10-17T02:46:35.131Z,8.30
2017-10-17T02:49:08.002Z,8.30
2017-10-17T02:51:35.491Z,8.30
2017-10-17T02:54:02.998Z,8.30
2017-10-17T02:56:30.509Z,8.20
2017-10-17T02:58:58.032Z,8.20
2017-10-17T03:01:34.352Z,8.20
2017-10-17T03:04:02.227Z,8.20
2017-10-17T03:06:30.095Z,8.10
2017-10-17T03:08:57.987Z,8.10
2017-10-17T03:11:25.471Z,8.10
2017-10-17T03:14:03.770Z,8.10
2017-10-17T03:16:31.269Z,8.10
2017-10-17T03:18:59.219Z,8.10
2017-10-17T03:21:28.290Z,8.00
2017-10-17T03:24:17.228Z,8.00
2017-10-17T03:26:44.727Z,8.00
2017-10-17T03:29:12.207Z,7.90
2017-10-17T03:31:39.684Z,7.90
2017-10-17T03:34:11.282Z,7.90
2017-10-17T03:39:56.806Z,7.80
2017-10-17T03:42:25.071Z,7.70
2017-10-17T03:44:54.488Z,7.60
2017-10-17T03:47:36.955Z,7.70
2017-10-17T03:50:05.192Z,7.70
2017-10-17T03:52:35.805Z,7.70
2017-10-17T03:55:03.303Z,7.70
2017-10-17T03:57:31.740Z,7.70
2017-10-17T03:59:59.954Z,7.70
2017-10-17T04:02:27.851Z,7.70
2017-10-17T04:05:02.212Z,7.70
2017-10-17T04:10:44.557Z,7.80
2017-10-17T04:13:25.225Z,7.70
2017-10-17T04:15:53.126Z,7.70
2017-10-17T04:21:34.592Z,7.60
2017-10-17T04:24:27.264Z,7.60
2017-10-17T04:26:55.632Z,7.60
2017-10-17T04:29:40.028Z,7.60
2017-10-17T04:32:07.531Z,7.60
2017-10-17T04:34:39.168Z,7.40
2017-10-17T04:37:17.459Z,7.40
2017-10-17T04:39:45.020Z,7.40
2017-10-17T04:42:44.175Z,7.40
2017-10-17T04:45:18.161Z,7.40
2017-10-17T04:47:54.983Z,7.40
2017-10-17T04:53:32.807Z,7.40
2017-10-17T04:56:01.951Z,7.40
2017-10-17T04:58:52.882Z,7.40
2017-10-17T05:01:20.774Z,7.50
2017-10-17T05:03:50.215Z,7.50
2017-10-17T05:06:17.719Z,7.50
2017-10-17T05:08:49.744Z,7.50
2017-10-17T05:11:29.079Z,7.40
2017-10-17T05:17:08.078Z,7.40
2017-10-17T05:19:47.214Z,7.30
2017-10-17T05:22:22.232Z,7.30
2017-10-17T05:24:56.433Z,7.30
2017-10-17T05:27:37.028Z,7.20
2017-10-17T05:30:11.972Z,7.20
2017-10-17T05:32:39.470Z,7.20
2017-10-17T05:35:06.961Z,7.20
2017-10-17T05:37:35.399Z,7.20
2017-10-17T05:40:02.867Z,7.20
2017-10-17T05:42:32.344Z,7.20
2017-10-17T05:45:01.724Z,7.20
2017-10-17T05:47:33.843Z,7.20
2017-10-17T05:50:09.226Z,7.20
2017-10-17T05:52:43.192Z,7.30
2017-10-17T05:55:10.666Z,7.20
2017-10-17T05:57:38.566Z,7.30
2017-10-17T06:00:06.056Z,7.30
2017-10-17T06:02:33.538Z,7.30
2017-10-17T06:05:01.443Z,7.30
2017-10-17T06:07:28.939Z,7.30
2017-10-17T06:09:58.402Z,7.30
2017-10-17T06:12:25.920Z,7.30
2017-10-17T06:14:53.806Z,7.30
2017-10-17T06:17:21.704Z,7.30
2017-10-17T06:19:49.187Z,7.30
2017-10-17T06:22:18.635Z,7.30
2017-10-17T06:24:46.509Z,7.30
2017-10-17T06:27:14.407Z,7.30
2017-10-17T06:29:41.913Z,7.30
2017-10-17T06:32:09.385Z,7.30
2017-10-17T06:34:37.279Z,7.30
2017-10-17T06:37:04.774Z,7.30
2017-10-17T06:39:32.268Z,7.40
2017-10-17T06:42:01.088Z,7.50
2017-10-17T06:44:28.563Z,7.50
2017-10-17T06:46:56.054Z,7.60
2017-10-17T06:49:23.534Z,7.60
2017-10-17T06:51:51.431Z,7.70
2017-10-17T06:54:19.848Z,7.70
2017-10-17T06:56:47.346Z,7.80
2017-10-17T06:59:18.935Z,7.80
2017-10-17T07:01:49.362Z,7.90
2017-10-17T07:04:17.739Z,8.00
2017-10-17T07:06:45.240Z,8.10
2017-10-17T07:09:13.137Z,8.20
2017-10-17T07:11:40.657Z,8.20
2017-10-17T07:14:08.138Z,8.20
2017-10-17T07:16:36.070Z,8.40
2017-10-17T07:19:03.545Z,8.40
2017-10-17T07:21:31.044Z,8.70
2017-10-17T07:23:58.547Z,8.80
2017-10-17T07:26:26.051Z,9.00
2017-10-17T07:28:53.562Z,9.00
2017-10-17T07:31:21.048Z,9.10
2017-10-17T07:33:49.839Z,9.50
2017-10-17T07:36:17.746Z,9.80
2017-10-17T07:38:45.236Z,9.80
2017-10-17T07:41:12.750Z,9.80
2017-10-17T07:43:40.243Z,9.90
2017-10-17T07:46:07.765Z,9.90
2017-10-17T07:48:36.247Z,10.00
2017-10-17T07:51:04.387Z,10.20
2017-10-17T07:53:32.287Z,10.50
2017-10-17T07:55:59.801Z,10.50
2017-10-17T07:58:27.288Z,10.70
2017-10-17T08:00:54.809Z,10.80
2017-10-17T08:03:22.300Z,10.80
2017-10-17T08:05:49.822Z,10.90
2017-10-17T08:08:17.312Z,10.90
2017-10-17T08:10:44.824Z,11.00
2017-10-17T08:13:12.322Z,11.00
2017-10-17T08:15:40.208Z,11.20
2017-10-17T08:18:07.747Z,11.20
2017-10-17T08:20:35.634Z,11.40
2017-10-17T08:23:03.148Z,11.40
2017-10-17T08:25:31.576Z,11.50
2017-10-17T08:27:59.072Z,11.60
2017-10-17T08:30:26.590Z,11.70
2017-10-17T08:32:54.084Z,11.90
2017-10-17T08:35:23.540Z,12.00
2017-10-17T08:37:53.383Z,12.30
2017-10-17T08:40:20.891Z,12.20
2017-10-17T08:42:48.807Z,12.40
2017-10-17T08:45:16.305Z,12.40
2017-10-17T08:47:45.751Z,12.50
2017-10-17T08:50:13.247Z,12.60
2017-10-17T08:52:40.742Z,12.70
2017-10-17T08:55:08.655Z,12.80
2017-10-17T08:57:36.173Z,12.80
2017-10-17T09:00:04.068Z,13.00
2017-10-17T09:02:31.576Z,13.00
2017-10-17T09:04:59.063Z,13.10
2017-10-17T09:07:26.579Z,13.20
2017-10-17T09:09:54.111Z,13.20
2017-10-17T09:12:21.627Z,13.30
2017-10-17T09:14:49.131Z,13.40
2017-10-17T09:17:16.664Z,13.40
2017-10-17T09:19:44.165Z,13.50
2017-10-17T09:22:11.674Z,13.50
2017-10-17T09:27:13.495Z,13.90
2017-10-17T09:29:40.993Z,13.90
2017-10-17T09:32:08.907Z,14.00
2017-10-17T09:34:36.391Z,14.00
2017-10-17T09:37:03.916Z,14.10
2017-10-17T09:39:31.413Z,14.10
2017-10-17T09:41:58.927Z,14.20
2017-10-17T09:44:26.427Z,14.30
2017-10-17T09:46:53.938Z,14.30
2017-10-17T09:49:21.448Z,14.40
2017-10-17T09:51:48.962Z,14.60
2017-10-17T09:54:16.527Z,14.70
2017-10-17T09:56:44.910Z,14.70
2017-10-17T09:59:12.426Z,14.80
2017-10-17T10:01:40.307Z,14.90
2017-10-17T10:04:07.819Z,14.90
2017-10-17T10:06:35.334Z,15.00
2017-10-17T10:09:02.824Z,15.10
2017-10-17T10:11:30.330Z,15.10
2017-10-17T10:13:58.225Z,15.20
2017-10-17T10:16:25.730Z,15.20
2017-10-17T10:18:55.177Z,15.30
2017-10-17T10:21:22.672Z,15.30
2017-10-17T10:23:50.171Z,15.40
2017-10-17T10:26:18.074Z,15.60
2017-10-17T10:28:46.159Z,15.60
2017-10-17T10:31:13.667Z,15.70
2017-10-17T10:33:41.547Z,15.80
2017-10-17T10:36:11.392Z,15.80
2017-10-17T10:38:38.902Z,15.80
2017-10-17T10:41:06.392Z,15.90
2017-10-17T10:43:33.895Z,15.90
2017-10-17T10:46:01.392Z,16.00
2017-10-17T10:48:30.206Z,16.00
2017-10-17T10:50:57.708Z,16.10
2017-10-17T10:53:25.190Z,16.10
2017-10-17T10:55:53.090Z,16.20
2017-10-17T10:58:20.587Z,16.20
2017-10-17T11:00:48.063Z,16.30
2017-10-17T11:03:15.548Z,16.40
2017-10-17T11:05:45.051Z,16.40
2017-10-17T11:08:12.537Z,16.50
2017-10-17T11:10:40.032Z,16.50
2017-10-17T11:13:07.520Z,16.60
2017-10-17T11:15:35.042Z,16.70
2017-10-17T11:18:02.550Z,16.70
2017-10-17T11:20:30.047Z,16.80
2017-10-17T11:22:57.534Z,16.90
2017-10-17T11:25:25.432Z,17.10
2017-10-17T11:27:53.850Z,17.10
2017-10-17T11:30:21.352Z,17.10
2017-10-17T11:32:49.222Z,17.20
2017-10-17T11:35:17.123Z,17.30
2017-10-17T11:37:44.619Z,17.30
2017-10-17T11:40:13.087Z,17.30
2017-10-17T11:42:52.535Z,17.30
2017-10-17T11:45:20.020Z,17.50
2017-10-17T11:47:48.840Z,17.80
2017-10-17T11:50:16.343Z,17.80
2017-10-17T11:52:43.875Z,17.80
2017-10-17T11:55:11.387Z,17.80
2017-10-17T11:57:39.270Z,17.90
2017-10-17T12:00:06.777Z,17.90
2017-10-17T12:02:34.264Z,18.00
2017-10-17T12:05:02.163Z,18.10
2017-10-17T12:07:29.647Z,18.00
2017-10-17T12:09:57.143Z,18.00
2017-10-17T12:12:25.016Z,18.10
2017-10-17T12:14:52.909Z,18.30
2017-10-17T12:17:20.396Z,18.30
2017-10-17T12:19:47.884Z,18.30
2017-10-17T12:22:16.680Z,18.20
2017-10-17T12:24:44.566Z,18.30
2017-10-17T12:27:12.450Z,18.30
2017-10-17T12:29:39.946Z,18.30
2017-10-17T12:32:07.432Z,18.30
2017-10-17T12:34:35.328Z,18.60
2017-10-17T12:37:02.819Z,18.60
2017-10-17T12:39:30.297Z,18.70
2017-10-17T12:41:57.798Z,18.70
2017-10-17T12:44:25.279Z,18.70
2017-10-17T12:46:52.790Z,18.70
2017-10-17T12:49:20.700Z,18.70
2017-10-17T12:51:48.179Z,18.70
2017-10-17T12:54:15.682Z,18.80
2017-10-17T12:56:43.595Z,18.90
2017-10-17T12:59:11.082Z,18.90
2017-10-17T13:01:38.587Z,19.00
2017-10-17T13:04:07.046Z,19.10
2017-10-17T13:06:34.566Z,19.10
2017-10-17T13:09:02.060Z,19.10
2017-10-17T13:11:29.943Z,19.20
2017-10-17T13:13:57.443Z,19.20
2017-10-17T13:16:24.930Z,19.20
2017-10-17T13:18:52.406Z,19.20
2017-10-17T13:21:20.300Z,19.30
2017-10-17T13:23:48.719Z,19.30
2017-10-17T13:26:18.182Z,19.30
2017-10-17T13:28:45.664Z,19.30
2017-10-17T13:31:14.100Z,19.30
2017-10-17T13:33:41.583Z,19.30
2017-10-17T13:36:09.082Z,19.40
2017-10-17T13:38:36.592Z,19.40
2017-10-17T13:41:04.098Z,19.50
2017-10-17T13:43:31.583Z,19.50
2017-10-17T13:45:59.461Z,19.60
2017-10-17T13:48:27.927Z,19.60
2017-10-17T13:50:55.791Z,19.70
2017-10-17T13:53:23.693Z,19.70
2017-10-17T13:55:51.207Z,19.70
2017-10-17T13:58:19.117Z,19.80
2017-10-17T14:00:46.632Z,19.80
2017-10-17T14:03:14.111Z,19.70
2017-10-17T14:05:41.975Z,19.80
2017-10-17T14:08:09.872Z,19.80
2017-10-17T14:10:37.380Z,19.80
2017-10-17T14:13:04.883Z,19.70
2017-10-17T14:15:32.369Z,19.70
2017-10-17T14:17:59.921Z,19.70
2017-10-17T14:20:29.371Z,19.70
2017-10-17T14:22:57.244Z,19.60
2017-10-17T14:25:25.144Z,19.70
2017-10-17T14:27:52.710Z,19.70
2017-10-17T14:30:22.197Z,19.70
2017-10-17T14:32:49.688Z,19.60
2017-10-17T14:35:17.189Z,19.60
2017-10-17T14:37:45.067Z,19.50
2017-10-17T14:40:12.571Z,19.60
2017-10-17T14:42:40.056Z,19.60
2017-10-17T14:45:07.549Z,19.50
2017-10-17T14:47:35.047Z,19.50
2017-10-17T14:50:04.519Z,19.50
2017-10-17T14:52:32.024Z,19.40
2017-10-17T14:54:59.552Z,19.40
2017-10-17T14:57:27.078Z,19.30
2017-10-17T14:59:54.623Z,19.30
2017-10-17T15:02:22.535Z,19.10
2017-10-17T15:04:50.058Z,19.10
2017-10-17T15:07:17.587Z,19.00
2017-10-17T15:09:45.087Z,19.00
2017-10-17T15:12:13.522Z,18.90
2017-10-17T15:14:41.044Z,18.80
2017-10-17T15:17:08.566Z,18.80
2017-10-17T15:19:36.497Z,18.70
2017-10-17T15:22:04.053Z,18.70
2017-10-17T15:24:31.651Z,18.70
2017-10-17T15:26:59.187Z,18.60
2017-10-17T15:29:26.712Z,18.50
2017-10-17T15:31:54.210Z,18.50
2017-10-17T15:34:21.767Z,18.40
2017-10-17T15:36:49.311Z,18.40
2017-10-17T15:39:17.263Z,18.20
2017-10-17T15:41:44.778Z,18.20
2017-10-17T15:44:12.716Z,18.10
2017-10-17T15:46:40.268Z,18.10
2017-10-17T15:49:07.775Z,18.00
2017-10-17T15:51:35.555Z,18.00
2017-10-17T15:54:03.095Z,17.90
2017-10-17T15:56:30.684Z,17.80
2017-10-17T15:58:58.218Z,17.80
2017-10-17T16:01:25.719Z,17.70
2017-10-17T16:03:53.222Z,17.60
2017-10-17T16:06:21.145Z,17.40
2017-10-17T16:08:48.694Z,17.40
2017-10-17T16:11:17.300Z,17.30
2017-10-17T16:13:44.829Z,17.20
2017-10-17T16:16:12.368Z,17.20
2017-10-17T16:18:39.934Z,17.10
2017-10-17T16:21:07.526Z,17.00
2017-10-17T16:23:35.039Z,16.90
2017-10-17T16:26:02.560Z,16.90
2017-10-17T16:28:30.137Z,16.80
2017-10-17T16:30:58.031Z,16.60
2017-10-17T16:33:25.706Z,16.60
2017-10-17T16:35:53.277Z,16.50
2017-10-17T16:38:20.885Z,16.50
2017-10-17T16:40:48.797Z,16.20
2017-10-17T16:43:16.313Z,16.20
2017-10-17T16:45:44.232Z,16.10
2017-10-17T16:48:11.773Z,16.10
2017-10-17T16:50:39.312Z,16.00
2017-10-17T16:53:08.097Z,15.80
2017-10-17T16:55:36.035Z,15.80
2017-10-17T16:58:03.580Z,15.80
2017-10-17T17:00:31.128Z,15.70
2017-10-17T17:02:58.727Z,15.60
2017-10-17T17:05:26.699Z,15.40
2017-10-17T17:07:54.654Z,15.30
2017-10-17T17:10:22.173Z,15.30
2017-10-17T17:12:49.730Z,15.20
2017-10-17T17:15:18.199Z,15.20
2017-10-17T17:17:46.740Z,15.20
2017-10-17T17:20:14.639Z,15.10
2017-10-17T17:22:42.280Z,15.00
2017-10-17T17:25:12.241Z,14.90
2017-10-17T17:27:39.768Z,14.90
2017-10-17T17:30:08.667Z,14.70
2017-10-17T17:32:36.207Z,14.70
2017-10-17T17:35:04.132Z,14.50
2017-10-17T17:37:31.660Z,14.50
2017-10-17T17:39:59.179Z,14.40
2017-10-17T17:42:26.687Z,14.40
2017-10-17T17:44:54.214Z,14.30
2017-10-17T17:47:22.190Z,14.30
2017-10-17T17:49:50.162Z,14.20
2017-10-17T17:52:18.097Z,14.20
2017-10-17T17:54:45.627Z,14.20
2017-10-17T17:57:13.166Z,14.10
2017-10-17T17:59:40.711Z,14.10
2017-10-17T18:02:08.304Z,14.00
2017-10-17T18:04:35.807Z,14.00
2017-10-17T18:07:04.536Z,13.80
2017-10-17T18:09:33.610Z,13.90
2017-10-17T18:12:01.148Z,13.70
2017-10-17T18:14:30.292Z,13.70
2017-10-17T18:16:57.815Z,13.70
2017-10-17T18:19:25.728Z,13.60
2017-10-17T18:21:54.644Z,13.60
2017-10-17T18:24:22.144Z,13.50
2017-10-17T18:26:50.063Z,13.40
2017-10-17T18:29:17.593Z,13.40
2017-10-17T18:31:46.071Z,13.40
2017-10-17T18:34:13.600Z,13.30
2017-10-17T18:36:41.582Z,13.20
2017-10-17T18:39:09.234Z,13.20
2017-10-17T18:41:36.768Z,13.20
2017-10-17T18:44:04.765Z,13.00
2017-10-17T18:46:33.149Z,13.00
2017-10-17T18:49:01.448Z,12.90
2017-10-17T18:51:28.984Z,12.90
2017-10-17T18:53:56.503Z,12.90
2017-10-17T18:56:24.955Z,12.90
2017-10-17T18:58:52.498Z,12.80
2017-10-17T19:01:20.027Z,12.80
2017-10-17T19:03:47.923Z,12.80
2017-10-17T19:06:15.449Z,12.80
2017-10-17T19:08:44.373Z,12.70
2017-10-17T19:11:11.906Z,12.70
2017-10-17T19:13:39.828Z,12.60
2017-10-17T19:16:07.355Z,12.60
2017-10-17T19:18:34.947Z,12.60
2017-10-17T19:21:02.455Z,12.50
2017-10-17T19:23:30.968Z,12.50
2017-10-17T19:25:58.492Z,12.50
2017-10-17T19:28:26.009Z,12.50
2017-10-17T19:30:53.526Z,12.50
2017-10-17T19:33:21.031Z,12.40
2017-10-17T19:35:48.563Z,12.30
2017-10-17T19:38:17.386Z,12.20
2017-10-17T19:40:44.919Z,12.10
2017-10-17T19:43:12.507Z,12.10
2017-10-17T19:45:40.020Z,12.00
2017-10-17T19:48:07.535Z,12.00
2017-10-17T19:50:35.467Z,12.00
2017-10-17T19:53:04.966Z,12.00
2017-10-17T19:55:32.484Z,12.00
2017-10-17T19:58:00.015Z,11.90
2017-10-17T20:00:27.530Z,11.80
2017-10-17T20:02:57.022Z,11.70
2017-10-17T20:05:24.519Z,11.70
2017-10-17T20:07:52.027Z,11.70
2017-10-17T20:10:19.579Z,11.60
2017-10-17T20:12:48.412Z,11.60
2017-10-17T20:15:15.942Z,11.60
2017-10-17T20:17:43.527Z,11.60
2017-10-17T20:20:11.037Z,11.50
2017-10-17T20:22:38.960Z,11.50
2017-10-17T20:25:06.506Z,11.50
2017-10-17T20:27:34.059Z,11.40
2017-10-17T20:30:01.572Z,11.30
2017-10-17T20:32:29.096Z,11.30
2017-10-17T20:34:57.601Z,11.30
2017-10-17T20:37:25.119Z,11.30
2017-10-17T20:39:52.640Z,11.30
2017-10-17T20:42:20.581Z,11.30
2017-10-17T20:44:49.111Z,11.30
2017-10-17T20:47:16.637Z,11.30
2017-10-17T20:49:44.149Z,11.30
2017-10-17T20:52:11.695Z,11.30
2017-10-17T20:54:39.210Z,11.30
2017-10-17T20:57:06.732Z,11.20
2017-10-17T20:59:35.216Z,11.10
2017-10-17T21:02:02.727Z,11.10
2017-10-17T21:04:30.624Z,10.90
2017-10-17T21:06:58.168Z,10.90
2017-10-17T21:09:25.751Z,10.90
2017-10-17T21:11:53.281Z,11.00
2017-10-17T21:14:20.801Z,11.00
2017-10-17T21:16:48.327Z,10.90
2017-10-17T21:19:15.821Z,10.80
2017-10-17T21:21:43.330Z,10.80
2017-10-17T21:24:10.869Z,10.90
2017-10-17T21:26:38.827Z,10.90
2017-10-17T21:29:06.999Z,10.90
2017-10-17T21:31:34.912Z,10.80
2017-10-17T21:34:02.418Z,10.80
2017-10-17T21:36:30.376Z,10.80
2017-10-17T21:38:57.918Z,10.80
2017-10-17T21:41:26.634Z,10.80
2017-10-17T21:43:54.182Z,10.70
2017-10-17T21:46:21.766Z,10.70
2017-10-17T21:48:49.699Z,10.80
2017-10-17T21:51:17.771Z,10.70
2017-10-17T21:53:45.672Z,10.70
2017-10-17T21:56:13.617Z,10.70
2017-10-17T21:58:41.151Z,10.60
2017-10-17T22:01:08.682Z,10.60
2017-10-17T22:03:36.225Z,10.50
2017-10-17T22:06:05.079Z,10.50
2017-10-17T22:08:32.607Z,10.50
2017-10-17T22:11:00.139Z,10.40
2017-10-17T22:13:29.246Z,10.40
2017-10-17T22:15:56.747Z,10.30
2017-10-17T22:18:24.247Z,10.30
2017-10-17T22:20:53.578Z,10.30
2017-10-17T22:23:21.079Z,10.30
2017-10-17T22:25:48.591Z,10.30
2017-10-17T22:28:18.103Z,10.20
2017-10-17T22:30:45.656Z,10.10
2017-10-17T22:33:13.199Z,10.00
2017-10-17T22:35:40.721Z,10.00
2017-10-17T22:38:08.230Z,9.90
2017-10-17T22:40:35.740Z,9.90
2017-10-17T22:43:03.269Z,9.90
2017-10-17T22:45:30.815Z,9.90
2017-10-17T22:47:58.337Z,9.90
2017-10-17T22:50:27.219Z,9.80
2017-10-17T22:52:57.079Z,9.90
2017-10-17T22:55:24.566Z,9.90
2017-10-17T22:57:52.116Z,9.90
2017-10-17T23:00:19.603Z,9.90
2017-10-17T23:02:47.523Z,9.80
2017-10-17T23:05:15.011Z,9.80
2017-10-17T23:07:43.319Z,9.80
2017-10-17T23:10:11.201Z,9.70
2017-10-17T23:12:38.703Z,9.70
2017-10-17T23:15:06.233Z,9.70
2017-10-17T23:17:59.399Z,9.60
2017-10-17T23:20:35.691Z,9.70
2017-10-17T23:23:03.191Z,9.70
2017-10-17T23:25:31.087Z,9.80
2017-10-17T23:27:58.577Z,9.80
2017-10-17T23:30:26.059Z,9.70
2017-10-17T23:32:53.963Z,9.70
2017-10-17T23:35:21.446Z,9.70
2017-10-17T23:37:48.944Z,9.70
2017-10-17T23:40:16.833Z,9.70
2017-10-17T23:42:44.340Z,9.70
2017-10-17T23:45:11.820Z,9.60
2017-10-17T23:47:39.311Z,9.50
2017-10-17T23:50:06.827Z,9.50
2017-10-17T23:52:34.317Z,9.50
2017-10-17T23:55:01.832Z,9.50
2017-10-17T23:57:29.344Z,9.60
2017-10-17T23:59:56.844Z,9.60
